Data for 11/23/2012

Time Sea-Level Adjusted Pressure Absolute Pressure Temperature Relative Humidity Dew Point   
(mb) (inHg) (mb) (inHg) (C) (F) (%) (C) (F)
00:05 1030 30.42 859 25.37 -4.9 23.3 59 -11.7 11
00:10 1030 30.42 859 25.37 -5.1 22.8 60 -11.7 10.9
00:15 1030 30.42 859 25.37 -5.1 22.8 61 -11.5 11.2
00:20 1030 30.42 859 25.37 -5.2 22.6 61 -11.7 10.9
00:25 1030 30.42 859 25.37 -5.1 22.8 60 -11.7 10.9
00:30 1030 30.42 859 25.37 -4.9 23.1 59 -11.6 11
00:35 1030 30.42 859 25.37 -5 23 61 -11.4 11.5
00:40 1030 30.42 859 25.37 -5.3 22.4 61 -11.6 11
00:45 1030 30.42 859 25.37 -5.3 22.4 61 -11.7 10.9
00:50 1030 30.42 859 25.37 -5.4 22.3 62 -11.6 11.1
00:55 1030 30.42 859 25.37 -5.6 21.8 62 -11.8 10.7
01:00 1030 30.42 859 25.37 -5.7 21.8 60 -12.3 9.9
01:05 1030 30.42 859 25.37 -5.5 22.2 59 -12.2 10.1
01:10 1030 30.42 859 25.37 -5.2 22.6 57 -12.4 9.7
01:15 1030 30.42 859 25.37 -4.9 23.2 54 -12.9 8.7
01:20 1030 30.42 859 25.37 -4.8 23.3 55 -12.5 9.6
01:25 1030 30.42 859 25.37 -5.3 22.5 58 -12.4 9.7
01:30 1030 30.42 859 25.37 -5.4 22.4 56 -12.8 9
01:35 1029 30.39 859 25.37 -5.5 22.1 57 -12.7 9.2
01:40 1029 30.39 859 25.37 -5.6 22 60 -12.1 10.2
01:45 1029 30.39 859 25.37 -5.7 21.7 61 -12.1 10.3
01:50 1029 30.39 858 25.34 -5.7 21.7 61 -12.1 10.2
01:55 1029 30.39 858 25.34 -5.5 22 59 -12.4 9.7
02:00 1029 30.39 858 25.34 -5.3 22.5 58 -12.3 9.9
02:05 1029 30.39 858 25.34 -5.2 22.6 57 -12.5 9.5
02:10 1029 30.39 858 25.34 -5 22.9 57 -12.4 9.7
02:15 1029 30.39 858 25.34 -5.2 22.6 59 -11.9 10.5
02:20 1029 30.39 858 25.34 -5.4 22.4 58 -12.5 9.5
02:25 1029 30.39 858 25.34 -5 23.1 55 -12.6 9.3
02:30 1029 30.39 858 25.34 -4.7 23.6 54 -12.6 9.3
02:35 1029 30.39 858 25.34 -4.5 23.9 54 -12.5 9.5
02:40 1029 30.39 858 25.34 -4.6 23.7 53 -12.8 9
02:45 1029 30.39 859 25.37 -4.4 24 53 -12.7 9.1
02:50 1029 30.39 859 25.37 -4.6 23.8 54 -12.6 9.4
02:55 1029 30.39 859 25.37 -4.7 23.5 56 -12.3 9.8
03:00 1029 30.39 859 25.37 -4.9 23.3 55 -12.5 9.5
03:05 1029 30.39 859 25.37 -5 23.1 57 -12.3 9.9
03:10 1029 30.39 859 25.37 -4.5 23.9 55 -12.3 9.8
03:15 1029 30.39 859 25.37 -4.2 24.5 55 -11.9 10.6
03:20 1029 30.39 859 25.37 -4.2 24.4 56 -11.8 10.7
03:25 1029 30.39 858 25.34 -4.6 23.8 56 -12 10.3
03:30 1029 30.39 859 25.37 -4.7 23.6 58 -11.8 10.7
03:35 1029 30.39 859 25.37 -4.9 23.3 59 -11.8 10.8
03:40 1029 30.39 858 25.34 -4.9 23.2 57 -12.2 10.1
03:45 1029 30.39 859 25.37 -4.7 23.5 56 -12.2 10
03:50 1029 30.39 859 25.37 -4.5 23.9 54 -12.5 9.4
03:55 1029 30.39 858 25.34 -4.6 23.8 55 -12.4 9.7
04:00 1029 30.39 858 25.34 -4.9 23.2 56 -12.3 9.9
04:05 1029 30.39 858 25.34 -5.1 22.8 57 -12.2 10
04:10 1029 30.39 858 25.34 -5.3 22.5 59 -12.1 10.3
04:15 1029 30.39 858 25.34 -5.7 21.7 61 -12.1 10.3
04:20 1029 30.39 858 25.34 -6 21.2 59 -12.8 8.9
04:25 1029 30.39 858 25.34 -5.4 22.3 58 -12.5 9.5
04:30 1029 30.39 858 25.34 -5.4 22.3 58 -12.3 9.8
04:35 1029 30.39 858 25.34 -5.5 22.1 59 -12.3 9.8
04:40 1029 30.39 858 25.34 -5.3 22.5 56 -12.8 9
04:45 1029 30.39 858 25.34 -4.9 23.1 56 -12.5 9.4
04:50 1029 30.39 858 25.34 -5 23 54 -12.9 8.9
04:55 1029 30.39 858 25.34 -4.6 23.7 52 -13 8.6
05:00 1029 30.39 858 25.34 -4.2 24.4 54 -12.2 10.1
05:05 1029 30.39 858 25.34 -4.3 24.2 53 -12.6 9.3
05:10 1029 30.39 858 25.34 -3.8 25.2 52 -12.2 10
05:15 1029 30.39 858 25.34 -4.3 24.3 60 -11 12.2
05:20 1029 30.39 858 25.34 -5.2 22.6 62 -11.4 11.5
05:25 1029 30.39 858 25.34 -5.3 22.4 65 -11 12.2
05:30 1029 30.39 858 25.34 -5.7 21.8 67 -10.8 12.5
05:35 1028 30.36 858 25.34 -5.7 21.7 65 -11.3 11.6
05:40 1028 30.36 858 25.34 -5.4 22.3 63 -11.5 11.4
05:45 1028 30.36 858 25.34 -4.8 23.3 56 -12.4 9.7
05:50 1028 30.36 858 25.34 -4.1 24.5 55 -11.9 10.5
05:55 1028 30.36 857 25.31 -4.8 23.4 59 -11.7 11
06:00 1028 30.36 858 25.34 -4.7 23.5 57 -11.9 10.6
06:05 1028 30.36 857 25.31 -5 23 61 -11.4 11.5
06:10 1028 30.36 857 25.31 -5 22.9 58 -12 10.3
06:15 1028 30.36 857 25.31 -4.9 23.2 59 -11.7 10.9
06:20 1028 30.36 857 25.31 -5.3 22.5 58 -12.3 9.9
06:25 1028 30.36 857 25.31 -5.1 22.8 58 -12.2 10
06:30 1028 30.36 857 25.31 -5.1 22.8 57 -12.4 9.7
06:35 1028 30.36 857 25.31 -4.8 23.3 55 -12.5 9.5
06:40 1028 30.36 857 25.31 -4.5 23.9 53 -12.8 8.9
06:45 1028 30.36 857 25.31 -3.9 25 52 -12.5 9.6
06:50 1028 30.36 857 25.31 -3.9 24.9 55 -11.6 11.1
06:55 1028 30.36 857 25.31 -4.8 23.4 59 -11.7 10.9
07:00 1028 30.36 857 25.31 -5 23 58 -12 10.4
07:05 1028 30.36 857 25.31 -4.9 23.2 55 -12.6 9.3
07:10 1027 30.33 857 25.31 -4.2 24.4 52 -12.7 9.1
07:15 1027 30.33 857 25.31 -3.7 25.4 53 -11.9 10.6
07:20 1027 30.33 857 25.31 -4 24.9 53 -12.3 9.9
07:25 1027 30.33 857 25.31 -3.9 25 56 -11.4 11.5
07:30 1027 30.33 857 25.31 -4 24.8 53 -12.1 10.1
07:35 1028 30.36 857 25.31 -3.8 25.1 54 -11.7 10.9
07:40 1028 30.36 857 25.31 -4.1 24.6 58 -11.1 12
07:45 1027 30.33 856 25.28 -4.9 23.2 63 -11 12.2
07:50 1027 30.33 856 25.28 -5.4 22.3 67 -10.5 13.1
07:55 1027 30.33 856 25.28 -5.2 22.6 62 -11.3 11.7
08:00 1027 30.33 856 25.28 -4.4 24.2 54 -12.4 9.8
08:05 1027 30.33 856 25.28 -3.6 25.5 53 -11.9 10.6
08:10 1027 30.33 856 25.28 -3.2 26.3 52 -11.6 11.1
08:15 1027 30.33 856 25.28 -3.1 26.5 52 -11.5 11.3
08:20 1027 30.33 856 25.28 -4.2 24.4 58 -11.2 11.8
08:25 1027 30.33 856 25.28 -4.3 24.2 53 -12.5 9.6
08:30 1027 30.33 856 25.28 -3.7 25.3 53 -12 10.4
08:35 1027 30.33 856 25.28 -3.8 25.2 54 -11.8 10.8
08:40 1027 30.33 856 25.28 -3.7 25.4 56 -11.1 11.9
08:45 1027 30.33 856 25.28 -3.6 25.4 56 -11.1 11.9
08:50 1027 30.33 856 25.28 -4.1 24.7 58 -11.2 11.8
08:55 1027 30.33 856 25.28 -4.2 24.4 56 -11.8 10.7
09:00 1027 30.33 856 25.28 -3.2 26.3 53 -11.4 11.5
09:05 1027 30.33 856 25.28 -3.5 25.7 55 -11.4 11.6
09:10 1027 30.33 856 25.28 -3.7 25.3 62 -10 14.1
09:15 1027 30.33 856 25.28 -3.9 25 63 -9.8 14.3
09:20 1027 30.33 856 25.28 -4.3 24.3 64 -10.2 13.7
09:25 1027 30.33 856 25.28 -4.6 23.7 65 -10.3 13.5
09:30 1027 30.33 856 25.28 -4.5 23.9 65 -10.1 13.8
09:35 1027 30.33 856 25.28 -4.3 24.2 65 -9.9 14.2
09:40 1027 30.33 856 25.28 -4.4 24 67 -9.7 14.5
09:45 1027 30.33 856 25.28 -4.5 24 67 -9.7 14.5
09:50 1027 30.33 856 25.28 -4.2 24.4 67 -9.5 14.8
09:55 1027 30.33 856 25.28 -3.7 25.4 62 -9.9 14.2
10:00 1027 30.33 856 25.28 -3.1 26.4 58 -10.3 13.4
10:05 1027 30.33 856 25.28 -2.6 27.3 55 -10.4 13.3
10:10 1027 30.33 856 25.28 -2.4 27.7 55 -10.2 13.7
10:15 1027 30.33 856 25.28 -2 28.4 55 -9.9 14.1
10:20 1027 30.33 856 25.28 -1.8 28.7 52 -10.4 13.3
10:25 1027 30.33 856 25.28 -1.6 29.2 52 -10.1 13.8
10:30 1027 30.33 856 25.28 -1.4 29.5 52 -10.1 13.9
10:35 1027 30.33 856 25.28 -0.9 30.4 51 -9.9 14.2
10:40 1027 30.33 856 25.28 -0.4 31.3 51 -9.3 15.2
10:45 1027 30.33 856 25.28 -0.2 31.6 51 -9.1 15.6
10:50 1027 30.33 856 25.28 -0.6 30.9 53 -9 15.8
10:55 1027 30.33 856 25.28 -0.6 30.9 52 -9.2 15.4
11:00 1027 30.33 856 25.28 -0.6 30.8 53 -9.1 15.7
11:05 1027 30.33 856 25.28 -0.6 30.9 53 -9 15.8
11:10 1027 30.33 856 25.28 -0.4 31.3 52 -9 15.8
11:15 1027 30.33 856 25.28 -0.1 31.8 52 -8.9 15.9
11:20 1027 30.33 856 25.28 -0.1 31.9 50 -9.2 15.5
11:25 1027 30.33 856 25.28 -0.1 31.8 48 -9.8 14.4
11:30 1026 30.3 856 25.28 0.1 32.2 48 -9.7 14.6
11:35 1026 30.3 856 25.28 0.5 33 46 -9.7 14.5
11:40 1026 30.3 856 25.28 0.7 33.3 43 -10.5 13.1
11:45 1026 30.3 856 25.28 0.7 33.2 44 -10.1 13.8
11:50 1026 30.3 855 25.25 0.8 33.4 45 -9.9 14.2
11:55 1026 30.3 855 25.25 0.8 33.4 46 -9.5 14.8
12:00 1026 30.3 855 25.25 0.9 33.7 45 -9.8 14.4
12:05 1026 30.3 855 25.25 1.5 34.7 44 -9.5 15
12:10 1026 30.3 855 25.25 2 35.5 44 -9.1 15.6
12:15 1026 30.3 855 25.25 1.9 35.5 43 -9.3 15.3
12:20 1026 30.3 855 25.25 2.2 36 45 -8.6 16.5
12:25 1026 30.3 855 25.25 2.6 36.7 41 -9.5 14.9
12:30 1025 30.27 855 25.25 2.8 37.1 41 -9 15.7
12:35 1025 30.27 855 25.25 2.6 36.7 41 -9.3 15.3
12:40 1025 30.27 855 25.25 2.8 37.1 41 -9.1 15.7
12:45 1025 30.27 854 25.22 3.1 37.5 40 -9.4 15.1
12:50 1025 30.27 854 25.22 3 37.5 41 -9.1 15.7
12:55 1025 30.27 854 25.22 3.2 37.8 39 -9.5 15
13:00 1025 30.27 854 25.22 3.2 37.8 38 -9.7 14.5
13:05 1025 30.27 854 25.22 2.8 37 39 -9.8 14.4
13:10 1025 30.27 854 25.22 3.4 38.1 37 -9.9 14.1
13:15 1025 30.27 854 25.22 3.8 38.9 37 -9.6 14.7
13:20 1025 30.27 854 25.22 3.7 38.7 40 -8.8 16.1
13:25 1024 30.24 854 25.22 3.2 37.8 40 -9.1 15.6
13:30 1024 30.24 854 25.22 3.1 37.7 42 -8.7 16.4
13:35 1024 30.24 854 25.22 3.3 37.9 41 -8.6 16.4
13:40 1024 30.24 853 25.19 3.4 38.2 42 -8.3 17
13:45 1024 30.24 853 25.19 4.3 39.8 40 -8.2 17.2
13:50 1024 30.24 853 25.19 4.7 40.5 39 -8 17.5
13:55 1024 30.24 853 25.19 4.6 40.3 40 -7.9 17.7
14:00 1024 30.24 853 25.19 4.9 40.8 40 -7.7 18.2
14:05 1024 30.24 853 25.19 5.3 41.5 37 -8.3 17
14:10 1024 30.24 853 25.19 5.4 41.7 39 -7.6 18.3
14:15 1024 30.24 853 25.19 5.4 41.6 40 -7.2 19
14:20 1024 30.24 853 25.19 5.4 41.7 39 -7.5 18.5
14:25 1024 30.24 853 25.19 5.3 41.5 40 -7.3 18.9
14:30 1024 30.24 853 25.19 4.7 40.4 43 -7 19.5
14:35 1023 30.21 853 25.19 4.7 40.5 42 -7.2 19.1
14:40 1023 30.21 853 25.19 4.7 40.5 44 -6.6 20.1
14:45 1023 30.21 853 25.19 4.8 40.7 42 -6.9 19.5
14:50 1023 30.21 852 25.16 4.9 40.8 43 -6.6 20.1
14:55 1023 30.21 852 25.16 4.7 40.4 43 -6.8 19.7
15:00 1023 30.21 852 25.16 4.4 40 44 -6.7 19.9
15:05 1023 30.21 852 25.16 4.2 39.5 44 -6.9 19.5
15:10 1023 30.21 852 25.16 4.2 39.6 44 -7.1 19.3
15:15 1023 30.21 852 25.16 4.5 40.1 42 -7.2 19
15:20 1023 30.21 852 25.16 4.5 40.1 44 -6.8 19.8
15:25 1023 30.21 852 25.16 4.5 40.2 44 -6.8 19.8
15:30 1023 30.21 852 25.16 4.5 40.1 43 -7 19.4
15:35 1023 30.21 852 25.16 4.4 39.8 46 -6.3 20.7
15:40 1023 30.21 852 25.16 4.1 39.5 45 -6.6 20
15:45 1023 30.21 852 25.16 4.2 39.5 47 -6.1 21
15:50 1023 30.21 852 25.16 4.1 39.4 47 -6.2 20.8
15:55 1022 30.18 852 25.16 3.9 39 48 -6.2 20.8
16:00 1022 30.18 852 25.16 3.9 39 47 -6.4 20.4
16:05 1022 30.18 852 25.16 3.7 38.6 49 -6.2 20.9
16:10 1022 30.18 851 25.13 3.5 38.3 48 -6.4 20.5
16:15 1022 30.18 851 25.13 3.5 38.3 50 -5.9 21.4
16:20 1022 30.18 851 25.13 3.5 38.3 49 -6.2 20.8
16:25 1022 30.18 852 25.16 3.5 38.4 49 -6.2 20.8
16:30 1022 30.18 851 25.13 3.4 38.2 49 -6.3 20.7
16:35 1022 30.18 852 25.16 3.2 37.7 50 -6.2 20.9
16:40 1022 30.18 852 25.16 3.2 37.8 51 -5.8 21.5
16:45 1022 30.18 851 25.13 3.3 37.9 51 -5.8 21.5
16:50 1022 30.18 851 25.13 3.4 38.1 50 -6 21.2
16:55 1022 30.18 852 25.16 3.5 38.3 50 -6.1 21
17:00 1022 30.18 852 25.16 3.4 38.2 51 -5.8 21.6
17:05 1022 30.18 852 25.16 3.3 38 51 -5.8 21.6
17:10 1022 30.18 852 25.16 3.3 37.9 52 -5.7 21.7
17:15 1022 30.18 851 25.13 3.4 38.1 52 -5.6 21.9
17:20 1022 30.18 851 25.13 3.5 38.4 50 -6 21.2
17:25 1022 30.18 851 25.13 3.4 38.2 51 -5.8 21.6
17:30 1022 30.18 851 25.13 3.1 37.6 54 -5.2 22.6
17:35 1022 30.18 851 25.13 3 37.5 54 -5.3 22.5
17:40 1022 30.18 851 25.13 2.9 37.3 55 -5.3 22.5
17:45 1022 30.18 851 25.13 2.9 37.3 55 -5.2 22.6
17:50 1022 30.18 851 25.13 2.9 37.3 52 -5.9 21.4
17:55 1022 30.18 851 25.13 3 37.4 52 -5.9 21.4
18:00 1022 30.18 851 25.13 2.9 37.2 51 -6.2 20.9
18:05 1022 30.18 851 25.13 2.9 37.1 53 -5.7 21.8
18:10 1022 30.18 851 25.13 2.6 36.6 55 -5.6 22
18:15 1022 30.18 851 25.13 2.5 36.4 57 -5.3 22.5
18:20 1022 30.18 851 25.13 2.3 36.1 54 -6.2 20.9
18:25 1022 30.18 851 25.13 2.4 36.2 57 -5.2 22.6
18:30 1022 30.18 851 25.13 2.3 36.1 59 -4.9 23.2
18:35 1022 30.18 851 25.13 2.2 35.9 63 -4.2 24.5
18:40 1022 30.18 851 25.13 1.9 35.4 66 -3.9 25
18:45 1022 30.18 851 25.13 1.8 35.2 66 -3.9 25
18:50 1022 30.18 851 25.13 1.6 34.9 68 -3.7 25.4
18:55 1022 30.18 851 25.13 1.3 34.4 72 -3.3 26.1
19:00 1022 30.18 851 25.13 1.1 34.1 73 -3.2 26.2
19:05 1022 30.18 851 25.13 1 33.8 74 -3.2 26.3
19:10 1022 30.18 851 25.13 1 33.7 69 -4.2 24.5
19:15 1022 30.18 851 25.13 1.7 35 64 -4.5 23.9
19:20 1022 30.18 851 25.13 2.1 35.9 64 -3.9 24.9
19:25 1022 30.18 851 25.13 2 35.6 64 -4.2 24.5
19:30 1022 30.18 851 25.13 1.9 35.4 66 -3.9 25
19:35 1022 30.18 851 25.13 1.8 35.2 64 -4.3 24.2
19:40 1022 30.18 851 25.13 1.6 35 65 -4.3 24.3
19:45 1021 30.15 851 25.13 1.4 34.5 68 -3.8 25.1
19:50 1021 30.15 851 25.13 1.1 33.9 67 -4.4 24
19:55 1021 30.15 851 25.13 1.5 34.8 64 -4.5 23.8
20:00 1021 30.15 851 25.13 1.8 35.2 65 -4 24.7
20:05 1022 30.18 851 25.13 1.6 34.8 62 -4.9 23.3
20:10 1022 30.18 851 25.13 1.9 35.5 62 -4.6 23.6
20:15 1022 30.18 851 25.13 2.2 36 59 -4.9 23.3
20:20 1021 30.15 851 25.13 2.2 36 62 -4.4 24.2
20:25 1021 30.15 850 25.1 1.7 35.1 65 -4.1 24.6
20:30 1021 30.15 850 25.1 1.4 34.5 65 -4.5 23.9
20:35 1021 30.15 850 25.1 1.6 34.8 62 -5 23
20:40 1021 30.15 850 25.1 2.2 36 59 -5.1 22.8
20:45 1021 30.15 850 25.1 2.5 36.6 58 -4.9 23.1
20:50 1021 30.15 850 25.1 2.7 36.8 57 -5 23
20:55 1021 30.15 850 25.1 2.9 37.1 56 -5.1 22.8
21:00 1021 30.15 850 25.1 3.1 37.7 55 -5.1 22.8
21:05 1021 30.15 850 25.1 3.2 37.7 55 -5 22.9
21:10 1021 30.15 850 25.1 2.9 37.3 57 -4.7 23.6
21:15 1020 30.12 850 25.1 2.4 36.3 59 -4.8 23.4
21:20 1021 30.15 850 25.1 2.2 36 59 -5 23
21:25 1021 30.15 850 25.1 2.5 36.4 56 -5.4 22.3
21:30 1020 30.12 850 25.1 2.7 36.9 56 -5.1 22.8
21:35 1020 30.12 849 25.07 2.8 37 56 -5.1 22.8
21:40 1020 30.12 849 25.07 3 37.5 52 -5.9 21.3
21:45 1020 30.12 849 25.07 3.6 38.4 53 -5.2 22.6
21:50 1020 30.12 849 25.07 3.4 38.2 54 -4.9 23.1
21:55 1020 30.12 849 25.07 3 37.3 55 -5.1 22.7
22:00 1020 30.12 849 25.07 2.9 37.3 55 -5.4 22.4
22:05 1020 30.12 849 25.07 3.2 37.7 54 -5.3 22.5
22:10 1020 30.12 849 25.07 3.4 38.1 51 -5.7 21.7
22:15 1020 30.12 849 25.07 3.7 38.6 52 -5.4 22.3
22:20 1020 30.12 849 25.07 3.6 38.6 49 -6 21.2
22:25 1020 30.12 849 25.07 4 39.2 50 -5.6 21.9
22:30 1020 30.12 849 25.07 4.1 39.4 49 -5.8 21.6
22:35 1020 30.12 849 25.07 4.5 40.1 45 -6.3 20.6
22:40 1020 30.12 850 25.1 4.8 40.6 48 -5.4 22.2
22:45 1020 30.12 850 25.1 4.1 39.4 49 -5.7 21.7
22:50 1020 30.12 849 25.07 4.1 39.4 49 -5.8 21.6
22:55 1020 30.12 849 25.07 4.1 39.3 51 -5.3 22.5
23:00 1020 30.12 849 25.07 3.7 38.7 49 -6.1 21.1
23:05 1020 30.12 849 25.07 4.1 39.4 47 -6.2 20.8
23:10 1020 30.12 849 25.07 4.6 40.2 46 -6.1 20.9
23:15 1020 30.12 849 25.07 4.7 40.4 47 -5.7 21.8
23:20 1020 30.12 849 25.07 4.2 39.6 49 -5.5 22.1
23:25 1020 30.12 849 25.07 3.8 38.9 50 -5.8 21.6
23:30 1020 30.12 849 25.07 3.8 38.8 49 -5.9 21.4
23:35 1020 30.12 849 25.07 4 39.2 48 -6.1 21
23:40 1020 30.12 849 25.07 4.2 39.5 48 -5.9 21.4
23:45 1020 30.12 849 25.07 4.6 40.3 45 -6.3 20.7
23:50 1020 30.12 849 25.07 4.5 40.2 48 -5.6 21.9
23:55 1020 30.12 849 25.07 4.1 39.4 48 -5.9 21.4
24:00 1020 30.12 849 25.07 4.1 39.3 51 -5.1 22.9